EDDR 210320Z 04005KT CAVOK 02/M03 Q1033 EDDR 210250Z 06004KT CAVOK 02/M03 Q1033 EDDR 210220Z 04005KT CAVOK 02/M03 Q1033 EDDR 210150Z 05005KT CAVOK 02/M03 Q1033 EDDR 210120Z 05004KT CAVOK 03/M03 Q1033 EDDR 210050Z 07005KT CAVOK 04/M03 Q1033 EDDR 210020Z 04007KT CAVOK 03/M03 Q1034 EDDR 202350Z 04005KT CAVOK 03/M03 Q1033 EDDR 202320Z 04006KT CAVOK 03/M02 Q1034 EDDR 202250Z 03006KT CAVOK 03/M04 Q1034 EDDR 202220Z 04003KT CAVOK 05/M03 Q1034 EDDR 202150Z 06005KT CAVOK 04/M03 Q1034 EDDR 202120Z 06005KT CAVOK 04/M02 Q1034 EDDR 202050Z 06005KT CAVOK 04/M03 Q1034 EDDR 202020Z 08004KT CAVOK 04/M02 Q1034 EDDR 201950Z 08003KT CAVOK 05/M02 Q1033 EDDR 201920Z 08004KT CAVOK 06/M02 Q1033 EDDR 201850Z 08006KT CAVOK 06/M02 Q1033 EDDR 201820Z 06004KT CAVOK 07/M03 Q1033 EDDR 201750Z 06004KT CAVOK 09/M03 Q1033 EDDR 201720Z 06005KT CAVOK 10/M03 Q1033 EDDR 201650Z 04005KT 360V060 CAVOK 12/M04 Q1033 EDDR 201620Z 04006KT 010V080 CAVOK 12/M04 Q1033 EDDR 201550Z 04004KT 350V150 CAVOK 13/M03 Q1033 EDDR 201520Z 36006KT 300V040 CAVOK 13/M04 Q1033 EDDR 201450Z VRB04KT CAVOK 12/M03 Q1033 EDDR 201420Z 07006KT 330V120 CAVOK 12/M03 Q1033 EDDR 201350Z 01007KT 330V060 CAVOK 12/M03 Q1033 EDDR 201320Z 08004KT 040V130 CAVOK 11/M02 Q1033 EDDR 201250Z 10005KT 040V130 CAVOK 12/M02 Q1033 EDDR 201220Z 03005KT 300V080 9999 FEW048 11/M02 Q1033 EDDR 201150Z 02008KT 340V070 9999 FEW048 11/M04 Q1034 EDDR 201120Z 07006KT 360V150 9999 FEW045 10/M02 Q1034 EDDR 201050Z 10005KT 020V130 9999 FEW042 09/M03 Q1034 EDDR 201020Z VRB05KT 9999 FEW038 10/M02 Q1034 EDDR 200950Z 08005KT 010V130 CAVOK 09/M02 Q1034 EDDR 200920Z VRB04KT CAVOK 09/M02 Q1034 EDDR 200850Z 12004KT 060V160 CAVOK 08/M02 Q1034 EDDR 200820Z 10003KT 070V140 CAVOK 07/M01 Q1034 EDDR 200750Z VRB02KT CAVOK 05/00 Q1034 EDDR 200720Z VRB02KT CAVOK 04/M01 Q1033 EDDR 200650Z 08003KT CAVOK 01/M01 Q1033 EDDR 200620Z VRB02KT CAVOK 00/M02 Q1033 EDDR 200550Z VRB02KT CAVOK M01/M03 Q1032 EDDR 200520Z 07002KT CAVOK M01/M03 Q1032 EDDR 200450Z VRB01KT CAVOK M01/M03 Q1032 EDDR 200420Z VRB02KT CAVOK M01/M03 Q1032 EDDR 200350Z 07003KT CAVOK M01/M02 Q1032 EDDR 200320Z VRB01KT CAVOK M01/M02 Q1032 EDDR 200250Z 25001KT CAVOK 00/M02 Q1031 EDDR 200220Z 05003KT CAVOK 00/M02 Q1031 EDDR 200150Z 06004KT CAVOK 00/M02 Q1031 EDDR 200120Z 05003KT CAVOK 01/M02 Q1031 EDDR 200050Z 05004KT CAVOK 01/M02 Q1032 EDDR 200020Z 08004KT CAVOK 02/M01 Q1031 EDDR 192350Z 07003KT CAVOK 02/M01 Q1031 EDDR 192320Z 06004KT CAVOK 01/M02 Q1031 EDDR 192250Z 07005KT CAVOK 02/M02 Q1031 EDDR 192220Z 08004KT CAVOK 02/M02 Q1031 EDDR 192150Z 07004KT CAVOK 02/M03 Q1031 EDDR 192120Z 10004KT CAVOK 03/M03 Q1031 EDDR 192050Z VRB01KT CAVOK 04/M03 Q1030 EDDR 192020Z 29004KT CAVOK 05/M03 Q1030 EDDR 191950Z 30003KT CAVOK 05/M03 Q1030 EDDR 191920Z 30004KT CAVOK 05/M03 Q1029 EDDR 191850Z 29003KT CAVOK 06/M03 Q1029 EDDR 191820Z 27004KT 240V320 CAVOK 07/M03 Q1029 EDDR 191750Z 30003KT CAVOK 07/M03 Q1029 EDDR 191720Z 32003KT 280V350 CAVOK 08/M03 Q1028 EDDR 191650Z 30005KT 270V360 CAVOK 09/M03 Q1028 EDDR 191620Z 32005KT 290V020 CAVOK 10/M04 Q1028 EDDR 191550Z VRB03KT CAVOK 10/M04 Q1027

METAR Messwerte

Zurück zur Übersicht

Ort
m ü. NN
Zeit Temperatur Taupunkt Rel.
Luftfeuchte
Luftdruck:
Altimeter
NN
Station
Wind in Beaufort
(Knoten)
Sichtweite
(Meter)
Wolken
(Meter über Grund)
Wettererscheinung
Saarbrücken/Ensheim
Do 21.03. 04:202-369 %1033
1033
1033
NO 2 (5)>= 10000Nicht signifikant 
Saarbrücken/Ensheim
Do 21.03. 03:502-369 %1033
1033
1033
ONO 2 (4)>= 10000Nicht signifikant 
Saarbrücken/Ensheim
Do 21.03. 03:202-369 %1033
1033
1033
NO 2 (5)>= 10000Nicht signifikant 
Saarbrücken/Ensheim
Do 21.03. 02:502-369 %1033
1033
1033
NO 2 (5)>= 10000Nicht signifikant 
Saarbrücken/Ensheim
Do 21.03. 02:203-365 %1033
1033
1033
NO 2 (4)>= 10000Nicht signifikant 
Saarbrücken/Ensheim
Do 21.03. 01:504-360 %1033
1033
1033
ONO 2 (5)>= 10000Nicht signifikant 
Saarbrücken/Ensheim
Do 21.03. 01:203-365 %1034
1034
1034
NO 3 (7)>= 10000Nicht signifikant 
Saarbrücken/Ensheim
Do 21.03. 00:503-365 %1033
1033
1033
NO 2 (5)>= 10000Nicht signifikant 
Saarbrücken/Ensheim
Do 21.03. 00:203-270 %1034
1034
1034
NO 2 (6)>= 10000Nicht signifikant 
Saarbrücken/Ensheim
Mi 20.03. 23:503-460 %1034
1034
1034
NNO 2 (6)>= 10000Nicht signifikant 
Saarbrücken/Ensheim
Mi 20.03. 23:205-356 %1034
1034
1034
NO 2 (3)>= 10000Nicht signifikant 
Saarbrücken/Ensheim
Mi 20.03. 22:504-360 %1034
1034
1034
ONO 2 (5)>= 10000Nicht signifikant 
Saarbrücken/Ensheim
Mi 20.03. 22:204-265 %1034
1034
1034
ONO 2 (5)>= 10000Nicht signifikant 
Saarbrücken/Ensheim
Mi 20.03. 21:504-360 %1034
1034
1034
ONO 2 (5)>= 10000Nicht signifikant 
Saarbrücken/Ensheim
Mi 20.03. 21:204-265 %1034
1034
1034
O 2 (4)>= 10000Nicht signifikant 
Saarbrücken/Ensheim
Mi 20.03. 20:505-260 %1033
1033
1033
O 2 (3)>= 10000Nicht signifikant 
Saarbrücken/Ensheim
Mi 20.03. 20:206-256 %1033
1033
1033
O 2 (4)>= 10000Nicht signifikant 
Saarbrücken/Ensheim
Mi 20.03. 19:506-256 %1033
1033
1033
O 2 (6)>= 10000Nicht signifikant 
Saarbrücken/Ensheim
Mi 20.03. 19:207-349 %1033
1033
1033
ONO 2 (4)>= 10000Nicht signifikant 
Saarbrücken/Ensheim
Mi 20.03. 18:509-343 %1033
1033
1033
ONO 2 (4)>= 10000Nicht signifikant 
Saarbrücken/Ensheim
Mi 20.03. 18:2010-340 %1033
1033
1033
ONO 2 (5)>= 10000Nicht signifikant 
Saarbrücken/Ensheim
Mi 20.03. 17:5012-432 %1033
1033
1033
NO 2 (5)
N - ONO
>= 10000Nicht signifikant 
Saarbrücken/Ensheim
Mi 20.03. 17:2012-432 %1033
1033
1033
NO 2 (6)
N - O
>= 10000Nicht signifikant 
Saarbrücken/Ensheim
Mi 20.03. 16:5013-333 %1033
1033
1033
NO 2 (4)
N - SSO
>= 10000Nicht signifikant 
Saarbrücken/Ensheim
Mi 20.03. 16:2013-430 %1033
1033
1033
N 2 (6)
WNW - NO
>= 10000Nicht signifikant 
Saarbrücken/Ensheim
Mi 20.03. 15:5012-335 %1033
1033
1033
Uml 2 (4)>= 10000Nicht signifikant 
Saarbrücken/Ensheim
Mi 20.03. 15:2012-335 %1033
1033
1033
ONO 2 (6)
NNW - OSO
>= 10000Nicht signifikant 
Saarbrücken/Ensheim
Mi 20.03. 14:5012-335 %1033
1033
1033
N 3 (7)
NNW - ONO
>= 10000Nicht signifikant 
Saarbrücken/Ensheim
Mi 20.03. 14:2011-240 %1033
1033
1033
O 2 (4)
NO - SO
>= 10000Nicht signifikant 
Saarbrücken/Ensheim
Mi 20.03. 13:5012-238 %1033
1033
1033
O 2 (5)
NO - SO
>= 10000Nicht signifikant 
Saarbrücken/Ensheim
Mi 20.03. 13:2011-240 %1033
1033
1033
NNO 2 (5)
WNW - O
>= 10000Leicht bewölkt (1500) 
Saarbrücken/Ensheim
Mi 20.03. 12:5011-435 %1034
1034
1034
NNO 3 (8)
NNW - ONO
>= 10000Leicht bewölkt (1500) 
Saarbrücken/Ensheim
Mi 20.03. 12:2010-243 %1034
1034
1034
ONO 2 (6)
N - SSO
>= 10000Leicht bewölkt (1400) 
Saarbrücken/Ensheim
Mi 20.03. 11:509-343 %1034
1034
1034
O 2 (5)
NNO - SO
>= 10000Leicht bewölkt (1300) 
Saarbrücken/Ensheim
Mi 20.03. 11:2010-243 %1034
1034
1034
Uml 2 (5)>= 10000Leicht bewölkt (1200) 
Saarbrücken/Ensheim
Mi 20.03. 10:509-246 %1034
1034
1034
O 2 (5)
N - SO
>= 10000Nicht signifikant 
Saarbrücken/Ensheim
Mi 20.03. 10:209-246 %1034
1034
1034
Uml 2 (4)>= 10000Nicht signifikant 
Saarbrücken/Ensheim
Mi 20.03. 09:508-249 %1034
1034
1034
OSO 2 (4)
ONO - SSO
>= 10000Nicht signifikant 
Saarbrücken/Ensheim
Mi 20.03. 09:207-157 %1034
1034
1034
O 2 (3)
ONO - SO
>= 10000Nicht signifikant 
Saarbrücken/Ensheim
Mi 20.03. 08:505070 %1034
1034
1034
Uml 1 (2)>= 10000Nicht signifikant 
Saarbrücken/Ensheim
Mi 20.03. 08:204-170 %1033
1033
1033
Uml 1 (2)>= 10000Nicht signifikant 
Saarbrücken/Ensheim
Mi 20.03. 07:501-186 %1033
1033
1033
O 2 (3)>= 10000Nicht signifikant 
Saarbrücken/Ensheim
Mi 20.03. 07:200-286 %1033
1033
1033
Uml 1 (2)>= 10000Nicht signifikant 
Saarbrücken/Ensheim
Mi 20.03. 06:50-1-386 %1032
1032
1032
Uml 1 (2)>= 10000Nicht signifikant 
Saarbrücken/Ensheim
Mi 20.03. 06:20-1-386 %1032
1032
1032
ONO 1 (2)>= 10000Nicht signifikant 
Saarbrücken/Ensheim
Mi 20.03. 05:50-1-386 %1032
1032
1032
Uml 1 (1)>= 10000Nicht signifikant 
Saarbrücken/Ensheim
Mi 20.03. 05:20-1-386 %1032
1032
1032
Uml 1 (2)>= 10000Nicht signifikant 
Saarbrücken/Ensheim
Mi 20.03. 04:50-1-293 %1032
1032
1032
ONO 2 (3)>= 10000Nicht signifikant 
Saarbrücken/Ensheim
Mi 20.03. 04:20-1-293 %1032
1032
1032
Uml 1 (1)>= 10000Nicht signifikant 
Saarbrücken/Ensheim
Mi 20.03. 03:500-286 %1031
1031
1031
WSW 1 (1)>= 10000Nicht signifikant 
Saarbrücken/Ensheim
Mi 20.03. 03:200-286 %1031
1031
1031
NO 2 (3)>= 10000Nicht signifikant 
Saarbrücken/Ensheim
Mi 20.03. 02:500-286 %1031
1031
1031
ONO 2 (4)>= 10000Nicht signifikant 
Saarbrücken/Ensheim
Mi 20.03. 02:201-280 %1031
1031
1031
NO 2 (3)>= 10000Nicht signifikant 
Saarbrücken/Ensheim
Mi 20.03. 01:501-280 %1032
1032
1032
NO 2 (4)>= 10000Nicht signifikant 
Saarbrücken/Ensheim
Mi 20.03. 01:202-180 %1031
1031
1031
O 2 (4)>= 10000Nicht signifikant 
Saarbrücken/Ensheim
Mi 20.03. 00:502-180 %1031
1031
1031
ONO 2 (3)>= 10000Nicht signifikant 
Saarbrücken/Ensheim
Mi 20.03. 00:201-280 %1031
1031
1031
ONO 2 (4)>= 10000Nicht signifikant 
Saarbrücken/Ensheim
Di 19.03. 23:502-275 %1031
1031
1031
ONO 2 (5)>= 10000Nicht signifikant 
Saarbrücken/Ensheim
Di 19.03. 23:202-275 %1031
1031
1031
O 2 (4)>= 10000Nicht signifikant 
Saarbrücken/Ensheim
Di 19.03. 22:502-369 %1031
1031
1031
ONO 2 (4)>= 10000Nicht signifikant 
Saarbrücken/Ensheim
Di 19.03. 22:203-365 %1031
1031
1031
O 2 (4)>= 10000Nicht signifikant 
Saarbrücken/Ensheim
Di 19.03. 21:504-360 %1030
1030
1030
Uml 1 (1)>= 10000Nicht signifikant 
Saarbrücken/Ensheim
Di 19.03. 21:205-356 %1030
1030
1030
WNW 2 (4)>= 10000Nicht signifikant 
Saarbrücken/Ensheim
Di 19.03. 20:505-356 %1030
1030
1030
WNW 2 (3)>= 10000Nicht signifikant 
Saarbrücken/Ensheim
Di 19.03. 20:205-356 %1029
1029
1029
WNW 2 (4)>= 10000Nicht signifikant 
Saarbrücken/Ensheim
Di 19.03. 19:506-352 %1029
1029
1029
WNW 2 (3)>= 10000Nicht signifikant 
Saarbrücken/Ensheim
Di 19.03. 19:207-349 %1029
1029
1029
W 2 (4)
WSW - NW
>= 10000Nicht signifikant 
Saarbrücken/Ensheim
Di 19.03. 18:507-349 %1029
1029
1029
WNW 2 (3)>= 10000Nicht signifikant 
Saarbrücken/Ensheim
Di 19.03. 18:208-346 %1028
1028
1028
NW 2 (3)
W - N
>= 10000Nicht signifikant 
Saarbrücken/Ensheim
Di 19.03. 17:509-343 %1028
1028
1028
WNW 2 (5)
W - N
>= 10000Nicht signifikant 
Saarbrücken/Ensheim
Di 19.03. 17:2010-437 %1028
1028
1028
NW 2 (5)
WNW - NNO
>= 10000Nicht signifikant 
Saarbrücken/Ensheim
Di 19.03. 16:5010-437 %1027
1027
1027
Uml 2 (3)>= 10000Nicht signifikant 

Altimeter: Einstellung am Altimeter (Höhenmesser), die Höhe 0 muss auf diesen Luftdruckwert zeigen, damit das Gerät die Stationshöhe richtig anzeigt.

NN: Luftdruck reduziert auf "Normal Null", auf Meereshöhe, dieser von der Temperatur abhängige Wert wird bisweilen unkorrekt einfach als "Luftdruck" bezeichnet. Eigentlich nur eine fiktive Größe, die es erlaubt, Stationen auf unterschiedlichen Höhen miteinander zu vergleichen.

Station: Realer Luftdruck an der Station.